createdAt,value
2019-03-21T00:00:43.121Z,22.00
2019-03-21T00:03:10.225Z,22.00
2019-03-21T00:05:37.435Z,22.00
2019-03-21T00:08:04.523Z,22.00
2019-03-21T00:10:31.639Z,22.00
2019-03-21T00:12:59.235Z,22.00
2019-03-21T00:15:26.282Z,22.00
2019-03-21T00:17:53.355Z,22.00
2019-03-21T00:20:20.397Z,22.00
2019-03-21T00:22:47.582Z,22.00
2019-03-21T00:25:14.804Z,22.00
2019-03-21T00:27:41.896Z,22.00
2019-03-21T00:30:08.958Z,22.00
2019-03-21T00:32:36.243Z,22.00
2019-03-21T00:35:03.510Z,22.00
2019-03-21T00:37:30.619Z,22.00
2019-03-21T00:39:57.688Z,22.00
2019-03-21T00:42:24.728Z,22.00
2019-03-21T00:44:51.837Z,22.00
2019-03-21T00:47:18.904Z,22.00
2019-03-21T00:49:45.951Z,22.00
2019-03-21T00:52:13.193Z,22.00
2019-03-21T00:54:40.222Z,22.00
2019-03-21T00:57:07.309Z,22.00
2019-03-21T00:59:34.499Z,22.00
2019-03-21T01:02:01.535Z,22.00
2019-03-21T01:04:28.632Z,22.00
2019-03-21T01:06:55.676Z,22.00
2019-03-21T01:09:22.744Z,22.00
2019-03-21T01:11:49.807Z,22.00
2019-03-21T01:14:16.876Z,22.00
2019-03-21T01:16:43.946Z,22.00
2019-03-21T01:19:11.036Z,22.00
2019-03-21T01:21:38.089Z,22.00
2019-03-21T01:24:05.240Z,22.00
2019-03-21T01:26:32.392Z,22.00
2019-03-21T01:28:59.512Z,22.00
2019-03-21T01:31:26.980Z,22.00
2019-03-21T01:33:54.234Z,22.00
2019-03-21T01:36:21.276Z,21.90
2019-03-21T01:38:48.414Z,21.90
2019-03-21T01:41:15.464Z,21.90
2019-03-21T01:43:42.847Z,21.90
2019-03-21T01:46:09.908Z,21.90
2019-03-21T01:48:37.141Z,21.90
2019-03-21T01:51:04.238Z,21.90
2019-03-21T01:53:31.317Z,21.90
2019-03-21T01:55:58.523Z,21.90
2019-03-21T01:58:25.551Z,21.90
2019-03-21T02:00:52.759Z,21.90
2019-03-21T02:03:19.857Z,21.90
2019-03-21T02:05:46.918Z,21.90
2019-03-21T02:08:14.046Z,21.90
2019-03-21T02:10:41.163Z,21.90
2019-03-21T02:13:08.229Z,21.90
2019-03-21T02:15:35.509Z,21.90
2019-03-21T02:18:02.714Z,21.90
2019-03-21T02:20:29.857Z,21.90
2019-03-21T02:22:57.112Z,21.90
2019-03-21T02:25:24.404Z,21.90
2019-03-21T02:27:51.565Z,21.90
2019-03-21T02:30:18.640Z,21.90
2019-03-21T02:32:45.843Z,21.90
2019-03-21T02:35:12.919Z,21.90
2019-03-21T02:37:40.055Z,21.90
2019-03-21T02:40:07.215Z,22.00
2019-03-21T02:42:37.315Z,22.00
2019-03-21T02:45:08.938Z,21.90
2019-03-21T02:47:33.264Z,22.00
2019-03-21T02:50:00.444Z,22.00
2019-03-21T02:52:27.811Z,22.00
2019-03-21T02:54:54.924Z,22.00
2019-03-21T02:57:22.065Z,22.00
2019-03-21T02:59:49.117Z,22.00
2019-03-21T03:02:16.164Z,22.00
2019-03-21T03:04:43.407Z,22.00
2019-03-21T03:07:10.450Z,22.00
2019-03-21T03:09:37.746Z,22.00
2019-03-21T03:12:04.867Z,22.00
2019-03-21T03:14:32.298Z,22.00
2019-03-21T03:16:59.425Z,22.00
2019-03-21T03:19:26.562Z,22.00
2019-03-21T03:21:56.933Z,22.00
2019-03-21T03:24:24.074Z,22.00
2019-03-21T03:26:51.457Z,22.00
2019-03-21T03:29:18.549Z,22.00
2019-03-21T03:31:45.841Z,22.00
2019-03-21T03:34:12.981Z,22.00
2019-03-21T03:36:40.045Z,22.00
2019-03-21T03:39:07.173Z,22.00
2019-03-21T03:41:34.235Z,22.00
2019-03-21T03:44:01.324Z,22.00
2019-03-21T03:46:28.385Z,22.00
2019-03-21T03:48:55.465Z,22.00
2019-03-21T03:51:22.666Z,22.00
2019-03-21T03:53:49.809Z,22.00
2019-03-21T03:56:16.980Z,22.00
2019-03-21T03:58:44.100Z,22.00
2019-03-21T04:01:11.259Z,22.00
2019-03-21T04:03:38.451Z,22.00
2019-03-21T04:06:07.541Z,22.00
2019-03-21T04:08:34.626Z,22.00
2019-03-21T04:11:01.697Z,22.00
2019-03-21T04:13:28.783Z,22.00
2019-03-21T04:15:55.879Z,21.90
2019-03-21T04:18:22.977Z,21.90
2019-03-21T04:20:50.070Z,21.90
2019-03-21T04:23:17.318Z,21.90
2019-03-21T04:25:44.419Z,21.90
2019-03-21T04:28:11.484Z,21.90
2019-03-21T04:30:38.579Z,21.90
2019-03-21T04:33:07.757Z,21.90
2019-03-21T04:35:34.602Z,21.90
2019-03-21T04:38:01.671Z,21.90
2019-03-21T04:40:28.841Z,21.90
2019-03-21T04:42:56.037Z,21.90
2019-03-21T04:45:23.092Z,21.90
2019-03-21T04:47:50.175Z,21.90
2019-03-21T04:50:17.223Z,21.90
2019-03-21T04:52:44.367Z,21.90
2019-03-21T04:55:11.447Z,21.90
2019-03-21T04:57:38.524Z,21.90
2019-03-21T05:00:05.616Z,21.90
2019-03-21T05:02:32.752Z,21.90
2019-03-21T05:04:59.788Z,21.90
2019-03-21T05:07:26.881Z,21.90
2019-03-21T05:09:54.009Z,21.90
2019-03-21T05:12:21.152Z,21.90
2019-03-21T05:14:48.194Z,21.90
2019-03-21T05:17:15.512Z,21.90
2019-03-21T05:19:42.598Z,21.90
2019-03-21T05:22:09.730Z,21.90
2019-03-21T05:24:37.029Z,21.90
2019-03-21T05:27:04.094Z,21.90
2019-03-21T05:29:31.150Z,21.90
2019-03-21T05:31:58.583Z,21.90
2019-03-21T05:34:25.842Z,21.90
2019-03-21T05:36:52.953Z,21.90
2019-03-21T05:39:20.100Z,21.90
2019-03-21T05:41:47.268Z,21.90
2019-03-21T05:44:14.324Z,21.90
2019-03-21T05:46:41.397Z,21.90
2019-03-21T05:49:08.448Z,21.90
2019-03-21T05:51:35.740Z,21.90
2019-03-21T05:54:02.829Z,21.90
2019-03-21T05:56:29.915Z,21.90
2019-03-21T05:58:57.029Z,22.00
2019-03-21T06:01:35.415Z,22.00
2019-03-21T06:04:02.680Z,22.10
2019-03-21T06:06:33.997Z,22.20
2019-03-21T06:09:05.255Z,22.20
2019-03-21T06:11:42.418Z,22.20
2019-03-21T06:14:18.455Z,22.20
2019-03-21T06:16:50.907Z,22.10
2019-03-21T06:19:30.147Z,22.10
2019-03-21T06:22:01.308Z,22.10
2019-03-21T06:24:42.393Z,22.10
2019-03-21T06:27:19.110Z,22.20
2019-03-21T06:29:57.560Z,22.20
2019-03-21T06:32:34.601Z,22.20
2019-03-21T06:34:59.425Z,22.10
2019-03-21T06:37:28.664Z,22.20
2019-03-21T06:39:55.477Z,22.20
2019-03-21T06:42:22.991Z,22.20
2019-03-21T06:44:50.033Z,22.20
2019-03-21T06:47:17.284Z,22.20
2019-03-21T06:49:46.503Z,22.20
2019-03-21T06:52:13.151Z,22.30
2019-03-21T06:54:40.299Z,22.30
2019-03-21T06:57:07.450Z,22.30
2019-03-21T06:59:34.496Z,22.30
2019-03-21T07:02:01.536Z,22.30
2019-03-21T07:04:28.692Z,22.30
2019-03-21T07:06:56.821Z,22.40
2019-03-21T07:09:24.519Z,22.40
2019-03-21T07:11:51.672Z,22.40
2019-03-21T07:14:18.693Z,22.40
2019-03-21T07:16:45.791Z,22.40
2019-03-21T07:19:12.941Z,22.50
2019-03-21T07:21:40.091Z,22.50
2019-03-21T07:24:07.609Z,22.50
2019-03-21T07:26:34.767Z,22.50
2019-03-21T07:29:01.950Z,22.50
2019-03-21T07:31:29.067Z,22.50
2019-03-21T07:33:56.442Z,22.50
2019-03-21T07:36:26.171Z,22.60
2019-03-21T07:38:52.639Z,22.60
2019-03-21T07:41:19.742Z,22.60
2019-03-21T07:43:46.865Z,22.60
2019-03-21T07:46:14.033Z,22.60
2019-03-21T07:48:41.406Z,22.60
2019-03-21T07:51:08.553Z,22.70
2019-03-21T07:53:35.788Z,22.70
2019-03-21T07:56:04.629Z,22.70
2019-03-21T07:58:33.616Z,22.60
2019-03-21T08:01:01.183Z,22.70
2019-03-21T08:03:29.997Z,22.70
2019-03-21T08:06:02.817Z,22.60
2019-03-21T08:08:30.481Z,22.70
2019-03-21T08:10:57.785Z,22.70
2019-03-21T08:13:26.422Z,22.70
2019-03-21T08:18:31.940Z,22.70
2019-03-21T08:21:01.031Z,22.70
2019-03-21T08:23:28.438Z,22.70
2019-03-21T08:25:55.691Z,22.70
2019-03-21T08:28:27.551Z,22.70
2019-03-21T08:30:54.812Z,22.70
2019-03-21T08:33:28.113Z,22.70
2019-03-21T08:35:55.284Z,22.70
2019-03-21T08:38:22.873Z,22.70
2019-03-21T08:40:50.154Z,22.60
2019-03-21T08:43:17.726Z,22.60
2019-03-21T08:45:57.508Z,22.70
2019-03-21T08:48:32.377Z,22.70
2019-03-21T08:51:11.882Z,22.60
2019-03-21T08:53:45.242Z,22.60
2019-03-21T08:56:22.040Z,22.60
2019-03-21T08:58:58.855Z,22.60
2019-03-21T09:01:37.611Z,22.60
2019-03-21T09:04:12.695Z,22.60
2019-03-21T09:06:52.661Z,22.60
2019-03-21T09:09:26.358Z,22.60
2019-03-21T09:11:57.449Z,22.60
2019-03-21T09:14:32.214Z,22.70
2019-03-21T09:17:06.712Z,22.70
2019-03-21T09:19:43.262Z,22.70
2019-03-21T09:22:21.785Z,22.70
2019-03-21T09:24:56.739Z,22.70
2019-03-21T09:27:33.045Z,22.70
2019-03-21T09:29:58.778Z,22.80
2019-03-21T09:32:41.494Z,22.80
2019-03-21T09:35:15.408Z,22.80
2019-03-21T09:37:42.573Z,22.80
2019-03-21T09:40:31.397Z,22.80
2019-03-21T09:43:08.412Z,22.80
2019-03-21T09:45:46.725Z,22.80
2019-03-21T09:48:12.641Z,22.80
2019-03-21T09:50:53.680Z,22.80
2019-03-21T09:53:23.515Z,22.80
2019-03-21T09:56:04.170Z,22.80
2019-03-21T09:58:29.077Z,22.80
2019-03-21T10:00:56.334Z,22.80
2019-03-21T10:03:23.481Z,22.80
2019-03-21T10:05:50.597Z,22.80
2019-03-21T10:08:17.887Z,22.80
2019-03-21T10:10:45.010Z,22.80
2019-03-21T10:13:12.226Z,22.80
2019-03-21T10:15:39.400Z,22.80
2019-03-21T10:18:06.471Z,22.80
2019-03-21T10:20:33.551Z,22.70
2019-03-21T10:23:00.609Z,22.70
2019-03-21T10:25:27.645Z,22.70
2019-03-21T10:27:54.864Z,22.70
2019-03-21T10:30:21.944Z,22.70
2019-03-21T10:32:48.992Z,22.70
2019-03-21T10:35:16.034Z,22.80
2019-03-21T10:37:43.109Z,22.80
2019-03-21T10:40:10.162Z,22.80
2019-03-21T10:42:37.344Z,22.80
2019-03-21T10:45:04.412Z,22.70
2019-03-21T10:47:31.481Z,22.70
2019-03-21T10:49:58.529Z,22.70
2019-03-21T10:52:25.617Z,22.70
2019-03-21T10:54:52.655Z,22.70
2019-03-21T10:57:19.702Z,22.70
2019-03-21T10:59:46.767Z,22.70
2019-03-21T11:02:14.445Z,22.70
2019-03-21T11:04:41.483Z,22.80
2019-03-21T11:07:08.548Z,22.80
2019-03-21T11:09:35.586Z,22.80
2019-03-21T11:12:02.629Z,22.80
2019-03-21T11:14:29.792Z,22.80
2019-03-21T11:16:56.834Z,22.80
2019-03-21T11:19:23.899Z,22.80
2019-03-21T11:21:50.942Z,22.70
2019-03-21T11:24:18.182Z,22.70
2019-03-21T11:26:45.226Z,22.80
2019-03-21T11:29:12.299Z,22.80
2019-03-21T11:31:39.341Z,22.70
2019-03-21T11:34:06.569Z,22.70
2019-03-21T11:36:38.064Z,22.70
2019-03-21T11:39:02.394Z,22.70
2019-03-21T11:41:29.561Z,22.70
2019-03-21T11:43:56.627Z,22.70
2019-03-21T11:46:23.675Z,22.70
2019-03-21T11:48:50.749Z,22.60
2019-03-21T11:51:17.789Z,22.30
2019-03-21T11:53:44.846Z,22.00
2019-03-21T11:56:13.156Z,21.80
2019-03-21T11:58:40.364Z,21.70
2019-03-21T12:01:07.443Z,21.60
2019-03-21T12:03:34.484Z,21.50
2019-03-21T12:06:01.568Z,21.50
2019-03-21T12:08:28.610Z,21.50
2019-03-21T12:10:55.640Z,21.50
2019-03-21T12:13:22.809Z,21.50
2019-03-21T12:15:49.867Z,21.60
2019-03-21T12:18:16.901Z,21.50
2019-03-21T12:20:43.988Z,21.40
2019-03-21T12:23:11.026Z,21.60
2019-03-21T12:25:38.268Z,21.50
2019-03-21T12:28:05.321Z,21.40
2019-03-21T12:30:32.411Z,21.30
2019-03-21T12:32:59.439Z,21.30
2019-03-21T12:35:26.656Z,21.40
2019-03-21T12:37:53.801Z,21.60
2019-03-21T12:40:20.851Z,21.80
2019-03-21T12:42:47.995Z,21.90
2019-03-21T12:45:15.073Z,22.00
2019-03-21T12:47:42.195Z,22.00
2019-03-21T12:50:09.235Z,22.10
2019-03-21T12:52:41.295Z,22.10
2019-03-21T12:55:05.164Z,22.10
2019-03-21T12:57:32.214Z,22.10
2019-03-21T12:59:59.339Z,22.20
2019-03-21T13:02:32.346Z,22.20
2019-03-21T13:04:55.404Z,22.20
2019-03-21T13:07:22.764Z,22.20
2019-03-21T13:09:49.887Z,22.20
2019-03-21T13:12:16.931Z,22.20
2019-03-21T13:14:44.133Z,22.20
2019-03-21T13:17:11.168Z,22.20
2019-03-21T13:19:38.238Z,22.20
2019-03-21T13:22:05.285Z,22.20
2019-03-21T13:24:32.519Z,22.20
2019-03-21T13:27:00.305Z,22.20
2019-03-21T13:29:27.535Z,22.20
2019-03-21T13:31:54.585Z,22.20
2019-03-21T13:34:21.619Z,22.30
2019-03-21T13:36:48.783Z,22.30
2019-03-21T13:39:15.889Z,22.30
2019-03-21T13:41:42.929Z,22.30
2019-03-21T13:44:09.965Z,22.30
2019-03-21T13:46:37.183Z,22.30
2019-03-21T13:49:05.991Z,22.30
2019-03-21T13:51:32.999Z,22.30
2019-03-21T13:54:00.172Z,22.30
2019-03-21T13:56:37.589Z,22.30
2019-03-21T13:58:56.008Z,22.30
2019-03-21T14:01:23.076Z,22.30
2019-03-21T14:03:50.154Z,22.20
2019-03-21T14:06:17.219Z,22.30
2019-03-21T14:08:44.303Z,22.30
2019-03-21T14:11:11.352Z,22.30
2019-03-21T14:13:38.647Z,22.30
2019-03-21T14:16:05.747Z,22.30
2019-03-21T14:18:32.828Z,22.30
2019-03-21T14:20:59.872Z,22.30
2019-03-21T14:23:26.990Z,22.30
2019-03-21T14:25:54.102Z,22.30
2019-03-21T14:28:21.193Z,22.30
2019-03-21T14:30:49.132Z,22.20
2019-03-21T14:33:16.217Z,22.30
2019-03-21T14:35:43.264Z,22.30
2019-03-21T14:38:10.324Z,22.20
2019-03-21T14:40:37.402Z,22.20
2019-03-21T14:43:04.447Z,22.20
2019-03-21T14:45:31.649Z,22.20
2019-03-21T14:47:58.724Z,22.20
2019-03-21T14:50:25.753Z,22.20
2019-03-21T14:52:52.992Z,22.20
2019-03-21T14:55:20.043Z,22.20
2019-03-21T14:57:47.192Z,22.20
2019-03-21T15:00:14.368Z,22.20
2019-03-21T15:02:41.444Z,22.20
2019-03-21T15:05:08.650Z,22.20
2019-03-21T15:07:35.773Z,22.20
2019-03-21T15:10:02.842Z,22.20
2019-03-21T15:12:29.901Z,22.20
2019-03-21T15:14:57.042Z,22.20
2019-03-21T15:17:24.558Z,22.20
2019-03-21T15:19:51.665Z,22.20
2019-03-21T15:22:18.707Z,22.20
2019-03-21T15:24:45.845Z,22.20
2019-03-21T15:27:12.980Z,22.20
2019-03-21T15:29:40.085Z,22.20
2019-03-21T15:32:07.201Z,22.20
2019-03-21T15:34:34.232Z,22.20
2019-03-21T15:37:01.387Z,22.20
2019-03-21T15:39:28.448Z,22.20
2019-03-21T15:41:55.507Z,22.20
2019-03-21T15:44:22.672Z,22.20
2019-03-21T15:46:49.764Z,22.20
2019-03-21T15:49:16.904Z,22.20
2019-03-21T15:51:43.947Z,22.20
2019-03-21T15:54:11.034Z,22.20
2019-03-21T15:56:38.080Z,22.20
2019-03-21T15:59:05.152Z,22.20
2019-03-21T16:01:32.196Z,22.20
2019-03-21T16:03:59.429Z,22.20
2019-03-21T16:06:26.501Z,22.20
2019-03-21T16:08:53.534Z,22.20
2019-03-21T16:11:20.605Z,22.20
2019-03-21T16:13:47.655Z,22.20
2019-03-21T16:16:14.736Z,22.20
2019-03-21T16:18:41.779Z,22.20
2019-03-21T16:21:08.863Z,22.20
2019-03-21T16:23:35.903Z,22.20
2019-03-21T16:26:02.948Z,22.20
2019-03-21T16:28:30.020Z,22.20
2019-03-21T16:30:57.065Z,22.20
2019-03-21T16:33:24.204Z,22.20
2019-03-21T16:35:51.249Z,22.20
2019-03-21T16:38:18.321Z,22.20
2019-03-21T16:40:45.363Z,22.20
2019-03-21T16:43:12.606Z,22.20
2019-03-21T16:45:39.639Z,22.20
2019-03-21T16:48:08.950Z,22.20
2019-03-21T16:50:35.442Z,22.20
2019-03-21T16:53:02.647Z,22.20
2019-03-21T16:55:29.720Z,22.20
2019-03-21T16:57:56.797Z,22.20
2019-03-21T17:00:23.836Z,22.20
2019-03-21T17:02:50.907Z,22.20
2019-03-21T17:05:18.018Z,22.20
2019-03-21T17:07:45.139Z,22.20
2019-03-21T17:10:12.208Z,22.20
2019-03-21T17:12:40.702Z,22.20
2019-03-21T17:15:08.052Z,22.20
2019-03-21T17:17:35.131Z,22.20
2019-03-21T17:20:03.682Z,22.10
2019-03-21T17:22:30.990Z,22.20
2019-03-21T17:24:58.156Z,22.20
2019-03-21T17:27:25.198Z,22.20
2019-03-21T17:29:52.264Z,22.20
2019-03-21T17:32:19.584Z,22.20
2019-03-21T17:34:46.749Z,22.20
2019-03-21T17:37:13.995Z,22.20
2019-03-21T17:39:41.405Z,22.20
2019-03-21T17:42:08.689Z,22.20
2019-03-21T17:44:35.964Z,22.20
2019-03-21T17:47:03.018Z,22.20
2019-03-21T17:49:33.207Z,22.20
2019-03-21T17:52:01.562Z,22.20
2019-03-21T17:54:40.622Z,22.20
2019-03-21T17:56:57.423Z,22.20
2019-03-21T17:59:26.848Z,22.20
2019-03-21T18:01:54.112Z,22.20
2019-03-21T18:04:21.373Z,22.20
2019-03-21T18:06:48.447Z,22.20
2019-03-21T18:09:15.497Z,22.20
2019-03-21T18:11:42.553Z,22.20
2019-03-21T18:14:09.786Z,22.20
2019-03-21T18:16:36.859Z,22.20
2019-03-21T18:19:03.954Z,22.20
2019-03-21T18:21:31.055Z,22.20
2019-03-21T18:23:58.149Z,22.30
2019-03-21T18:26:25.198Z,22.20
2019-03-21T18:28:52.271Z,22.20
2019-03-21T18:31:19.489Z,22.20
2019-03-21T18:33:46.536Z,22.20
2019-03-21T18:36:13.614Z,22.20
2019-03-21T18:38:40.712Z,22.20
2019-03-21T18:41:07.785Z,22.20
2019-03-21T18:43:34.978Z,22.20
2019-03-21T18:46:02.012Z,22.20
2019-03-21T18:48:29.047Z,22.20
2019-03-21T18:50:56.130Z,22.30
2019-03-21T18:53:23.177Z,22.20
2019-03-21T18:55:50.448Z,22.20
2019-03-21T18:58:17.575Z,22.20
2019-03-21T19:00:44.650Z,22.20
2019-03-21T19:03:12.042Z,22.20
2019-03-21T19:05:39.080Z,22.20
2019-03-21T19:08:06.690Z,22.20
2019-03-21T19:10:33.722Z,22.20
2019-03-21T19:13:00.944Z,22.20
2019-03-21T19:15:28.020Z,22.20
2019-03-21T19:17:55.109Z,22.20
2019-03-21T19:20:22.232Z,22.20
2019-03-21T19:22:49.546Z,22.20
2019-03-21T19:25:18.760Z,22.20
2019-03-21T19:27:45.392Z,22.20
2019-03-21T19:30:12.485Z,22.20
2019-03-21T19:32:39.596Z,22.20
2019-03-21T19:35:06.675Z,22.20
2019-03-21T19:37:33.803Z,22.20
2019-03-21T19:40:00.830Z,22.30
2019-03-21T19:42:27.990Z,22.30
2019-03-21T19:44:55.109Z,22.40
2019-03-21T19:47:25.729Z,22.40
2019-03-21T19:49:51.562Z,22.50
2019-03-21T19:52:18.664Z,22.50
2019-03-21T19:54:45.708Z,22.60
2019-03-21T19:57:12.789Z,22.60
2019-03-21T19:59:40.795Z,22.60
2019-03-21T20:02:08.039Z,22.60
2019-03-21T20:04:35.122Z,22.70
2019-03-21T20:07:02.163Z,22.70
2019-03-21T20:09:29.233Z,22.70
2019-03-21T20:11:56.289Z,22.70
2019-03-21T20:14:23.490Z,22.80
2019-03-21T20:16:50.536Z,22.80
2019-03-21T20:19:17.599Z,22.80
2019-03-21T20:21:48.054Z,22.80
2019-03-21T20:24:13.574Z,22.80
2019-03-21T20:26:40.643Z,22.80
2019-03-21T20:29:07.702Z,22.80
2019-03-21T20:31:34.758Z,22.90
2019-03-21T20:34:02.650Z,22.90
2019-03-21T20:36:29.742Z,22.90
2019-03-21T20:38:56.801Z,23.00
2019-03-21T20:41:24.084Z,23.00
2019-03-21T20:43:51.148Z,23.00
2019-03-21T20:46:18.290Z,23.00
2019-03-21T20:48:45.356Z,23.00
2019-03-21T20:51:12.443Z,23.00
2019-03-21T20:53:39.517Z,22.90
2019-03-21T20:56:06.590Z,22.90
2019-03-21T20:58:33.670Z,22.80
2019-03-21T21:01:00.743Z,22.80
2019-03-21T21:03:27.821Z,22.80
2019-03-21T21:05:54.934Z,22.70
2019-03-21T21:08:22.003Z,22.70
2019-03-21T21:10:49.039Z,22.70
2019-03-21T21:13:16.318Z,22.60
2019-03-21T21:15:43.404Z,22.60
2019-03-21T21:18:10.449Z,22.60
2019-03-21T21:20:37.527Z,22.60
2019-03-21T21:23:04.760Z,22.60
2019-03-21T21:25:31.832Z,22.60
2019-03-21T21:27:58.903Z,22.60
2019-03-21T21:30:25.970Z,22.60
2019-03-21T21:32:53.041Z,22.60
2019-03-21T21:35:20.088Z,22.50
2019-03-21T21:37:47.204Z,22.50
2019-03-21T21:40:14.310Z,22.50
2019-03-21T21:42:41.370Z,22.50
2019-03-21T21:45:08.551Z,22.50
2019-03-21T21:47:36.199Z,22.50
2019-03-21T21:50:03.265Z,22.50
2019-03-21T21:52:41.386Z,22.50
2019-03-21T21:54:59.066Z,22.50
2019-03-21T21:57:26.111Z,22.50
2019-03-21T21:59:53.214Z,22.40
2019-03-21T22:02:20.654Z,22.40
2019-03-21T22:04:47.754Z,22.40
2019-03-21T22:07:14.847Z,22.40
2019-03-21T22:09:42.323Z,22.40
2019-03-21T22:12:09.632Z,22.40
2019-03-21T22:14:36.750Z,22.40
2019-03-21T22:17:04.004Z,22.40
2019-03-21T22:19:31.074Z,22.40
2019-03-21T22:21:58.596Z,22.40
2019-03-21T22:24:25.638Z,22.40
2019-03-21T22:26:52.706Z,22.40
2019-03-21T22:29:19.755Z,22.40
2019-03-21T22:31:46.979Z,22.40
2019-03-21T22:34:14.057Z,22.40
2019-03-21T22:36:49.376Z,22.40
2019-03-21T22:39:10.072Z,22.30
2019-03-21T22:41:37.113Z,22.30
2019-03-21T22:44:04.242Z,22.40
2019-03-21T22:46:31.285Z,22.30
2019-03-21T22:49:02.284Z,22.40
2019-03-21T22:51:33.103Z,22.40
2019-03-21T22:54:13.339Z,22.40
2019-03-21T22:56:45.760Z,22.40
2019-03-21T22:59:21.084Z,22.40
2019-03-21T23:01:56.865Z,22.30
2019-03-21T23:04:35.003Z,22.30
2019-03-21T23:07:09.480Z,22.30
2019-03-21T23:09:42.038Z,22.30
2019-03-21T23:12:18.109Z,22.30
2019-03-21T23:14:49.543Z,22.30
2019-03-21T23:17:25.229Z,22.30
2019-03-21T23:20:01.220Z,22.20
2019-03-21T23:22:27.443Z,22.20
2019-03-21T23:24:54.521Z,22.20
2019-03-21T23:27:21.553Z,22.20
2019-03-21T23:29:48.659Z,22.20
2019-03-21T23:32:15.775Z,22.20
2019-03-21T23:34:42.890Z,22.20
2019-03-21T23:37:09.935Z,22.20
2019-03-21T23:39:37.003Z,22.20
2019-03-21T23:42:04.081Z,22.20
2019-03-21T23:44:31.296Z,22.20
2019-03-21T23:46:58.366Z,22.20
2019-03-21T23:49:25.457Z,22.20
2019-03-21T23:51:52.567Z,22.20
2019-03-21T23:54:19.647Z,22.20
2019-03-21T23:57:04.559Z,22.20
2019-03-21T23:59:36.807Z,22.20
